»·PEaware :: ASA261 KHLN-KBOI

ASA261 :: KHLN-KBOI

FLIGHT INFORMATION

Flight Status: Arrived
Operator:
Alaska Airlines
More flights by this operator :: More flights under this callsign
Pilot: Evan P. (5770)
Aircraft: BOEING 737-200
(B732)
More flights by this aircraft type
Origin: KHLN Helena Regl
United States
Destination: KBOI Boise Air Terminal/Gowen
United States
More flights between these airports :: More routes between these airports
Route: HLN4 HLN CPN LKT BOI
File this flight plan on PilotEdge
Remarks:
Altitude:
(Current/Filed)
26,000ft
Speed:
(Current/Filed)
450kts
Departed: 03-Jul-18 04:58 PM
Arrived: 03-Jul-18 06:40 PM
Distance/Time
Traveled:
256nm/1:42
Distance/Time
To Go:
Arrived

Flight Plot

Page will automatically refresh every two minutes.

Flight plan parsing failed; only flown route is shown


Map Options




Map Legend


Flown Route
Filed Route
Departure Airport
Arrival Airport
Navaid (VOR, NDB)
Fix

Horizontal Profiles

Position Reports

Time Latitude Longitude Heading Altitude Ground
Speed
03-Jul-18 16:35 46.609956 -111.990613 102 3839ft 0kts
03-Jul-18 16:36 46.609956 -111.990613 102 3839ft 0kts
03-Jul-18 16:37 46.609957 -111.990613 102 3839ft 0kts
03-Jul-18 16:38 46.609957 -111.990613 102 3839ft 0kts
03-Jul-18 16:39 46.609957 -111.990613 102 3839ft 0kts
03-Jul-18 16:40 46.609957 -111.990613 102 3839ft 0kts
03-Jul-18 16:41 46.609957 -111.990613 102 3839ft 0kts
03-Jul-18 16:42 46.609957 -111.990613 102 3839ft 0kts
03-Jul-18 16:43 46.609957 -111.990613 102 3839ft 0kts
03-Jul-18 16:44 46.609957 -111.990613 102 3839ft 0kts
03-Jul-18 16:45 46.609957 -111.990613 102 3839ft 0kts
03-Jul-18 16:46 46.609957 -111.990613 102 3839ft 0kts
03-Jul-18 16:46 46.609957 -111.990613 102 3839ft 0kts
03-Jul-18 16:47 46.609956 -111.990609 102 3839ft 0kts
03-Jul-18 16:48 46.609919 -111.991078 92 3840ft 1kts
03-Jul-18 16:49 46.610026 -111.991216 166 3840ft 0kts
03-Jul-18 16:50 46.610026 -111.991216 166 3840ft 0kts
03-Jul-18 16:51 46.610026 -111.991216 166 3840ft 0kts
03-Jul-18 16:52 46.610026 -111.991216 166 3840ft 0kts
03-Jul-18 16:53 46.610026 -111.991216 166 3840ft 0kts
03-Jul-18 16:54 46.609976 -111.991210 188 3840ft 0kts
03-Jul-18 16:55 46.610048 -111.996558 270 3853ft 14kts
03-Jul-18 16:56 46.609356 -111.997216 193 3859ft 0kts
03-Jul-18 16:57 46.608562 -111.997417 170 3864ft 9kts
03-Jul-18 16:58 46.603444 -111.964725 103 4086ft 176kts
03-Jul-18 16:59 46.641413 -111.931896 319 5639ft 245kts
03-Jul-18 17:00 46.705166 -111.976438 353 7511ft 296kts
03-Jul-18 17:01 46.772033 -112.025047 284 10362ft 283kts
03-Jul-18 17:02 46.729767 -112.112552 192 11755ft 330kts
03-Jul-18 17:03 46.641087 -112.074479 133 13027ft 381kts
03-Jul-18 17:04 46.570897 -111.949421 157 13309ft 424kts
03-Jul-18 17:05 46.465194 -111.977149 230 14726ft 378kts
03-Jul-18 17:06 46.427837 -112.099000 250 16402ft 334kts
03-Jul-18 17:07 46.395948 -112.225174 250 18382ft 339kts
03-Jul-18 17:08 46.338082 -112.333001 228 20074ft 348kts
03-Jul-18 17:09 46.268865 -112.430615 226 21558ft 353kts
03-Jul-18 17:10 46.197225 -112.527798 225 22855ft 358kts
03-Jul-18 17:11 46.124308 -112.625763 225 23996ft 362kts
03-Jul-18 17:12 46.054847 -112.722346 234 24959ft 364kts
03-Jul-18 17:13 45.987966 -112.832795 227 25835ft 370kts
03-Jul-18 17:14 45.912910 -112.936829 225 26180ft 383kts
03-Jul-18 17:15 45.834705 -113.039675 224 26184ft 395kts
03-Jul-18 17:16 45.752692 -113.146949 224 26184ft 405kts
03-Jul-18 17:17 45.668757 -113.256372 224 26147ft 414kts
03-Jul-18 17:18 45.583231 -113.367424 224 26101ft 420kts
03-Jul-18 17:19 45.496970 -113.478959 224 26098ft 422kts
03-Jul-18 17:20 45.410340 -113.590511 224 26097ft 422kts
03-Jul-18 17:21 45.330546 -113.692474 223 26102ft 423kts
03-Jul-18 17:22 45.247333 -113.798312 223 26102ft 424kts
03-Jul-18 17:23 45.159746 -113.909627 223 26100ft 424kts
03-Jul-18 17:24 45.073817 -114.021975 225 26101ft 424kts
03-Jul-18 17:25 44.992003 -114.131170 225 26099ft 422kts
03-Jul-18 17:26 44.911460 -114.249239 229 26095ft 417kts
03-Jul-18 17:27 44.835338 -114.361688 229 26098ft 415kts
03-Jul-18 17:28 44.756610 -114.478189 229 26097ft 413kts
03-Jul-18 17:29 44.678155 -114.594012 229 26094ft 409kts
03-Jul-18 17:30 44.601621 -114.706070 228 26103ft 405kts
03-Jul-18 17:31 44.597692 -114.711793 228 26103ft 405kts
03-Jul-18 17:38 46.609957 -111.990613 102 3839ft 0kts
03-Jul-18 17:39 46.609957 -111.990613 102 3839ft 0kts
03-Jul-18 17:40 46.609957 -111.990613 102 3839ft 0kts
03-Jul-18 17:41 46.609957 -111.990613 102 3839ft 0kts
03-Jul-18 17:42 46.609957 -111.990613 102 3839ft 0kts
03-Jul-18 17:43 46.609957 -111.990613 102 3839ft 0kts
03-Jul-18 17:44 46.609400 -111.992268 278 3845ft 7kts
03-Jul-18 17:45 46.609911 -111.996849 235 3855ft 3kts
03-Jul-18 17:46 46.608671 -111.997440 191 3863ft 10kts
03-Jul-18 17:47 46.604289 -111.970730 103 3910ft 170kts
03-Jul-18 17:48 46.620078 -111.903257 14 5550ft 239kts
03-Jul-18 17:49 46.681278 -111.950528 319 7661ft 280kts
03-Jul-18 17:50 46.746473 -112.011635 291 10210ft 286kts
03-Jul-18 17:51 46.713167 -112.111972 198 11645ft 327kts
03-Jul-18 17:52 46.619416 -112.095516 171 13383ft 357kts
03-Jul-18 17:53 46.524156 -112.080369 198 15664ft 345kts
03-Jul-18 17:54 46.452017 -112.166167 226 17487ft 341kts
03-Jul-18 17:55 46.387237 -112.266957 227 19103ft 346kts
03-Jul-18 17:56 46.317979 -112.364506 226 20546ft 351kts
03-Jul-18 17:57 46.248033 -112.459566 225 21777ft 356kts
03-Jul-18 17:58 46.177490 -112.554117 225 22874ft 359kts
03-Jul-18 17:59 46.104307 -112.651481 224 23841ft 363kts
03-Jul-18 18:00 46.032911 -112.746845 224 24709ft 366kts
03-Jul-18 18:02 45.957873 -112.846128 224 25435ft 371kts
03-Jul-18 18:03 45.882037 -112.946033 224 25934ft 381kts
03-Jul-18 18:04 45.803477 -113.048685 224 26182ft 385kts
03-Jul-18 18:05 45.731858 -113.161284 229 26177ft 386kts
03-Jul-18 18:06 45.655859 -113.270698 225 26137ft 391kts
03-Jul-18 18:07 45.575927 -113.376475 224 26099ft 393kts
03-Jul-18 18:08 45.495038 -113.481407 224 26098ft 394kts
03-Jul-18 18:09 45.413901 -113.585908 224 26097ft 395kts
03-Jul-18 18:10 45.338181 -113.682743 223 25344ft 392kts
03-Jul-18 18:11 45.260321 -113.781757 223 24426ft 387kts
03-Jul-18 18:12 45.181653 -113.881762 224 24103ft 376kts
03-Jul-18 18:13 45.102824 -113.981851 224 24103ft 384kts
03-Jul-18 18:14 45.022577 -114.082665 224 24102ft 390kts
03-Jul-18 18:15 44.947831 -114.193185 230 24072ft 389kts
03-Jul-18 18:16 44.876989 -114.299873 229 23104ft 389kts
03-Jul-18 18:17 44.868301 -114.312752 229 22990ft 389kts
03-Jul-18 18:18 44.731600 -114.515335 229 21177ft 383kts
03-Jul-18 18:19 44.658671 -114.622956 229 20196ft 381kts
03-Jul-18 18:20 44.587227 -114.727124 228 19341ft 378kts
03-Jul-18 18:21 44.517890 -114.837000 231 18444ft 375kts
03-Jul-18 18:22 44.447516 -114.943463 228 17588ft 372kts
03-Jul-18 18:23 44.374925 -115.048097 228 16381ft 382kts
03-Jul-18 18:24 44.299849 -115.155122 227 15347ft 390kts
03-Jul-18 18:25 44.223763 -115.262770 226 14743ft 387kts
03-Jul-18 18:26 44.148644 -115.368579 226 14186ft 383kts
03-Jul-18 18:27 44.075045 -115.471871 226 14031ft 366kts
03-Jul-18 18:28 44.001881 -115.574190 226 14011ft 373kts
03-Jul-18 18:29 43.924619 -115.660267 203 13936ft 356kts
03-Jul-18 18:30 43.838424 -115.711089 202 12755ft 327kts
03-Jul-18 18:31 43.758706 -115.758297 203 11146ft 300kts
03-Jul-18 18:32 43.683900 -115.802196 203 9365ft 289kts
03-Jul-18 18:33 43.612470 -115.843474 203 8327ft 284kts
03-Jul-18 18:34 43.541971 -115.883644 203 7676ft 268kts
03-Jul-18 18:35 43.480393 -115.925879 242 7076ft 212kts
03-Jul-18 18:36 43.486901 -115.992854 295 6260ft 180kts
03-Jul-18 18:37 43.507549 -116.053913 296 5253ft 165kts
03-Jul-18 18:38 43.525151 -116.105206 295 4421ft 144kts
03-Jul-18 18:39 43.541818 -116.153806 295 3666ft 142kts
03-Jul-18 18:40 43.557938 -116.200974 295 2933ft 136kts
03-Jul-18 18:41 43.566363 -116.223993 7 2850ft 12kts
03-Jul-18 18:42 43.566760 -116.223313 115 2850ft 9kts
03-Jul-18 18:43 43.567228 -116.220709 22 2852ft 0kts
03-Jul-18 18:44 43.567228 -116.220709 22 2852ft 0kts
03-Jul-18 18:45 43.567228 -116.220709 22 2852ft 0kts

Navigation Log

Ident Type
Flight plan parsing failed, navigation log unavailable